sensor_id;sensor_type;location;lat;lon;timestamp;temperature;humidity
37158;DHT22;23050;51.776;22.638;2023-03-01T00:01:29;-3.70;99.90
37158;DHT22;23050;51.776;22.638;2023-03-01T00:03:56;-3.80;99.90
37158;DHT22;23050;51.776;22.638;2023-03-01T00:06:22;-3.80;99.90
37158;DHT22;23050;51.776;22.638;2023-03-01T00:08:48;-3.80;99.90
37158;DHT22;23050;51.776;22.638;2023-03-01T00:11:23;-3.80;99.90
37158;DHT22;23050;51.776;22.638;2023-03-01T00:13:51;-3.80;99.90
37158;DHT22;23050;51.776;22.638;2023-03-01T00:16:23;-3.70;99.90
37158;DHT22;23050;51.776;22.638;2023-03-01T00:18:49;-3.70;99.90
37158;DHT22;23050;51.776;22.638;2023-03-01T00:21:16;-3.80;99.90
37158;DHT22;23050;51.776;22.638;2023-03-01T00:23:41;-3.80;99.90
37158;DHT22;23050;51.776;22.638;2023-03-01T00:26:09;-3.80;99.90
37158;DHT22;23050;51.776;22.638;2023-03-01T00:28:35;-3.90;99.90
37158;DHT22;23050;51.776;22.638;2023-03-01T00:31:10;-3.80;99.90
37158;DHT22;23050;51.776;22.638;2023-03-01T00:33:35;-3.80;99.90
37158;DHT22;23050;51.776;22.638;2023-03-01T00:36:01;-3.80;99.90
37158;DHT22;23050;51.776;22.638;2023-03-01T00:38:27;-3.80;99.90
37158;DHT22;23050;51.776;22.638;2023-03-01T00:40:53;-3.80;99.90
37158;DHT22;23050;51.776;22.638;2023-03-01T00:43:19;-3.80;99.90
37158;DHT22;23050;51.776;22.638;2023-03-01T00:45:44;-3.80;99.90
37158;DHT22;23050;51.776;22.638;2023-03-01T00:48:10;-3.70;99.90
37158;DHT22;23050;51.776;22.638;2023-03-01T00:50:35;-3.70;99.90
37158;DHT22;23050;51.776;22.638;2023-03-01T00:53:01;-3.70;99.90
37158;DHT22;23050;51.776;22.638;2023-03-01T00:55:27;-3.70;99.90
37158;DHT22;23050;51.776;22.638;2023-03-01T00:57:52;-3.60;99.90
37158;DHT22;23050;51.776;22.638;2023-03-01T01:00:19;-3.60;99.90
37158;DHT22;23050;51.776;22.638;2023-03-01T01:02:45;-3.60;99.90
37158;DHT22;23050;51.776;22.638;2023-03-01T01:05:11;-3.50;99.90
37158;DHT22;23050;51.776;22.638;2023-03-01T01:07:37;-3.50;99.90
37158;DHT22;23050;51.776;22.638;2023-03-01T01:10:03;-3.50;99.90
37158;DHT22;23050;51.776;22.638;2023-03-01T01:12:28;-3.40;99.90
37158;DHT22;23050;51.776;22.638;2023-03-01T01:14:54;-3.50;99.90
37158;DHT22;23050;51.776;22.638;2023-03-01T01:17:19;-3.50;99.90
37158;DHT22;23050;51.776;22.638;2023-03-01T01:19:45;-3.50;99.90
37158;DHT22;23050;51.776;22.638;2023-03-01T01:22:11;-3.50;99.90
37158;DHT22;23050;51.776;22.638;2023-03-01T01:24:36;-3.40;99.90
37158;DHT22;23050;51.776;22.638;2023-03-01T01:27:02;-3.40;99.90
37158;DHT22;23050;51.776;22.638;2023-03-01T01:29:27;-3.40;99.90
37158;DHT22;23050;51.776;22.638;2023-03-01T01:31:53;-3.40;99.90
37158;DHT22;23050;51.776;22.638;2023-03-01T01:34:21;-3.40;99.90
37158;DHT22;23050;51.776;22.638;2023-03-01T01:36:53;-3.40;99.90
37158;DHT22;23050;51.776;22.638;2023-03-01T01:39:20;-3.40;99.90
37158;DHT22;23050;51.776;22.638;2023-03-01T01:41:46;-3.50;99.90
37158;DHT22;23050;51.776;22.638;2023-03-01T01:44:22;-3.50;99.90
37158;DHT22;23050;51.776;22.638;2023-03-01T01:47:18;-3.40;99.90
37158;DHT22;23050;51.776;22.638;2023-03-01T01:49:54;-3.40;99.90
37158;DHT22;23050;51.776;22.638;2023-03-01T01:52:29;-3.40;99.90
37158;DHT22;23050;51.776;22.638;2023-03-01T01:57:36;-3.30;99.90
37158;DHT22;23050;51.776;22.638;2023-03-01T02:00:16;-3.30;99.90
37158;DHT22;23050;51.776;22.638;2023-03-01T02:02:42;-3.30;99.90
37158;DHT22;23050;51.776;22.638;2023-03-01T02:05:13;-3.30;99.90
37158;DHT22;23050;51.776;22.638;2023-03-01T02:07:41;-3.30;99.90
37158;DHT22;23050;51.776;22.638;2023-03-01T02:10:07;-3.30;99.90
37158;DHT22;23050;51.776;22.638;2023-03-01T02:12:34;-3.40;99.90
37158;DHT22;23050;51.776;22.638;2023-03-01T02:15:00;-3.40;99.90
37158;DHT22;23050;51.776;22.638;2023-03-01T02:17:27;-3.50;99.90
37158;DHT22;23050;51.776;22.638;2023-03-01T02:22:35;-3.50;99.90
37158;DHT22;23050;51.776;22.638;2023-03-01T02:25:26;-3.50;99.90
37158;DHT22;23050;51.776;22.638;2023-03-01T02:28:23;-3.60;99.90
37158;DHT22;23050;51.776;22.638;2023-03-01T02:30:50;-3.60;99.90
37158;DHT22;23050;51.776;22.638;2023-03-01T02:33:36;-3.70;99.90
37158;DHT22;23050;51.776;22.638;2023-03-01T02:36:24;-3.70;99.90
37158;DHT22;23050;51.776;22.638;2023-03-01T02:38:54;-3.70;99.90
37158;DHT22;23050;51.776;22.638;2023-03-01T02:41:21;-3.70;99.90
37158;DHT22;23050;51.776;22.638;2023-03-01T02:43:48;-3.70;99.90
37158;DHT22;23050;51.776;22.638;2023-03-01T02:46:20;-3.70;99.90
37158;DHT22;23050;51.776;22.638;2023-03-01T02:48:52;-3.70;99.90
37158;DHT22;23050;51.776;22.638;2023-03-01T02:56:43;-3.50;99.90
37158;DHT22;23050;51.776;22.638;2023-03-01T02:59:09;-3.50;99.90
37158;DHT22;23050;51.776;22.638;2023-03-01T03:01:36;-3.40;99.90
37158;DHT22;23050;51.776;22.638;2023-03-01T03:04:09;-3.30;99.90
37158;DHT22;23050;51.776;22.638;2023-03-01T03:06:35;-3.40;99.90
37158;DHT22;23050;51.776;22.638;2023-03-01T03:09:02;-3.40;99.90
37158;DHT22;23050;51.776;22.638;2023-03-01T03:11:28;-3.40;99.90
37158;DHT22;23050;51.776;22.638;2023-03-01T03:13:54;-3.40;99.90
37158;DHT22;23050;51.776;22.638;2023-03-01T03:16:20;-3.40;99.90
37158;DHT22;23050;51.776;22.638;2023-03-01T03:18:45;-3.40;99.90
37158;DHT22;23050;51.776;22.638;2023-03-01T03:21:12;-3.40;99.90
37158;DHT22;23050;51.776;22.638;2023-03-01T03:23:38;-3.40;99.90
37158;DHT22;23050;51.776;22.638;2023-03-01T03:26:04;-3.40;99.90
37158;DHT22;23050;51.776;22.638;2023-03-01T03:28:31;-3.40;99.90
37158;DHT22;23050;51.776;22.638;2023-03-01T03:30:57;-3.40;99.90
37158;DHT22;23050;51.776;22.638;2023-03-01T03:33:24;-3.30;99.90
37158;DHT22;23050;51.776;22.638;2023-03-01T03:35:50;-3.10;99.90
37158;DHT22;23050;51.776;22.638;2023-03-01T03:38:18;-3.00;99.90
37158;DHT22;23050;51.776;22.638;2023-03-01T03:40:50;-3.00;99.90
37158;DHT22;23050;51.776;22.638;2023-03-01T03:43:21;-3.00;99.90
37158;DHT22;23050;51.776;22.638;2023-03-01T03:45:49;-3.00;99.90
37158;DHT22;23050;51.776;22.638;2023-03-01T03:48:16;-3.00;99.90
37158;DHT22;23050;51.776;22.638;2023-03-01T03:50:46;-3.00;99.90
37158;DHT22;23050;51.776;22.638;2023-03-01T03:53:12;-3.00;99.90
37158;DHT22;23050;51.776;22.638;2023-03-01T03:55:38;-3.00;99.90
37158;DHT22;23050;51.776;22.638;2023-03-01T03:58:08;-3.00;99.90
37158;DHT22;23050;51.776;22.638;2023-03-01T04:00:40;-2.90;99.90
37158;DHT22;23050;51.776;22.638;2023-03-01T04:03:07;-2.90;99.90
37158;DHT22;23050;51.776;22.638;2023-03-01T04:05:33;-2.90;99.90
37158;DHT22;23050;51.776;22.638;2023-03-01T04:07:59;-2.80;99.90
37158;DHT22;23050;51.776;22.638;2023-03-01T04:10:29;-2.90;99.90
37158;DHT22;23050;51.776;22.638;2023-03-01T04:12:55;-2.90;99.90
37158;DHT22;23050;51.776;22.638;2023-03-01T04:15:22;-2.80;99.90
37158;DHT22;23050;51.776;22.638;2023-03-01T04:17:50;-2.90;99.90
37158;DHT22;23050;51.776;22.638;2023-03-01T04:20:19;-2.90;99.90
37158;DHT22;23050;51.776;22.638;2023-03-01T04:23:12;-2.90;99.90
37158;DHT22;23050;51.776;22.638;2023-03-01T04:25:46;-2.90;99.90
37158;DHT22;23050;51.776;22.638;2023-03-01T04:28:15;-2.90;99.90
37158;DHT22;23050;51.776;22.638;2023-03-01T04:30:40;-2.90;99.90
37158;DHT22;23050;51.776;22.638;2023-03-01T04:33:07;-2.90;99.90
37158;DHT22;23050;51.776;22.638;2023-03-01T04:35:34;-3.00;99.90
37158;DHT22;23050;51.776;22.638;2023-03-01T04:38:00;-2.90;99.90
37158;DHT22;23050;51.776;22.638;2023-03-01T04:40:26;-2.90;99.90
37158;DHT22;23050;51.776;22.638;2023-03-01T04:42:51;-3.00;99.90
37158;DHT22;23050;51.776;22.638;2023-03-01T04:45:17;-3.00;99.90
37158;DHT22;23050;51.776;22.638;2023-03-01T04:47:45;-3.00;99.90
37158;DHT22;23050;51.776;22.638;2023-03-01T04:50:13;-3.00;99.90
37158;DHT22;23050;51.776;22.638;2023-03-01T04:52:39;-3.10;99.90
37158;DHT22;23050;51.776;22.638;2023-03-01T04:55:05;-3.00;99.90
37158;DHT22;23050;51.776;22.638;2023-03-01T04:57:31;-3.00;99.90
37158;DHT22;23050;51.776;22.638;2023-03-01T04:59:57;-3.00;99.90
37158;DHT22;23050;51.776;22.638;2023-03-01T05:02:23;-3.00;99.90
37158;DHT22;23050;51.776;22.638;2023-03-01T05:04:49;-3.00;99.90
37158;DHT22;23050;51.776;22.638;2023-03-01T05:07:14;-3.00;99.90
37158;DHT22;23050;51.776;22.638;2023-03-01T05:09:47;-3.00;99.90
37158;DHT22;23050;51.776;22.638;2023-03-01T05:12:14;-2.90;99.90
37158;DHT22;23050;51.776;22.638;2023-03-01T05:14:40;-2.90;99.90
37158;DHT22;23050;51.776;22.638;2023-03-01T05:17:06;-2.90;99.90
37158;DHT22;23050;51.776;22.638;2023-03-01T05:19:32;-2.90;99.90
37158;DHT22;23050;51.776;22.638;2023-03-01T05:21:58;-2.90;99.90
37158;DHT22;23050;51.776;22.638;2023-03-01T05:24:28;-2.90;99.90
37158;DHT22;23050;51.776;22.638;2023-03-01T05:26:54;-2.80;99.90
37158;DHT22;23050;51.776;22.638;2023-03-01T05:29:21;-2.80;99.90
37158;DHT22;23050;51.776;22.638;2023-03-01T05:31:54;-2.70;99.90
37158;DHT22;23050;51.776;22.638;2023-03-01T05:34:31;-2.70;99.90
37158;DHT22;23050;51.776;22.638;2023-03-01T05:36:57;-2.70;99.90
37158;DHT22;23050;51.776;22.638;2023-03-01T05:39:25;-2.70;99.90
37158;DHT22;23050;51.776;22.638;2023-03-01T05:41:59;-2.60;99.90
37158;DHT22;23050;51.776;22.638;2023-03-01T05:44:26;-2.60;99.90
37158;DHT22;23050;51.776;22.638;2023-03-01T05:46:52;-2.50;99.90
37158;DHT22;23050;51.776;22.638;2023-03-01T05:49:18;-2.50;99.90
37158;DHT22;23050;51.776;22.638;2023-03-01T05:51:48;-2.40;99.90
37158;DHT22;23050;51.776;22.638;2023-03-01T05:54:14;-2.30;99.90
37158;DHT22;23050;51.776;22.638;2023-03-01T05:56:40;-2.30;99.90
37158;DHT22;23050;51.776;22.638;2023-03-01T05:59:06;-2.20;99.90
37158;DHT22;23050;51.776;22.638;2023-03-01T06:01:33;-2.00;99.90
37158;DHT22;23050;51.776;22.638;2023-03-01T06:03:59;-1.80;99.90
37158;DHT22;23050;51.776;22.638;2023-03-01T06:06:24;-1.70;99.90
37158;DHT22;23050;51.776;22.638;2023-03-01T06:08:51;-1.60;99.90
37158;DHT22;23050;51.776;22.638;2023-03-01T06:11:17;-1.40;99.90
37158;DHT22;23050;51.776;22.638;2023-03-01T06:13:43;-1.30;99.90
37158;DHT22;23050;51.776;22.638;2023-03-01T06:16:10;-1.30;99.90
37158;DHT22;23050;51.776;22.638;2023-03-01T06:18:36;-1.20;99.90
37158;DHT22;23050;51.776;22.638;2023-03-01T06:21:06;-1.00;99.90
37158;DHT22;23050;51.776;22.638;2023-03-01T06:23:32;-0.90;99.90
37158;DHT22;23050;51.776;22.638;2023-03-01T06:25:58;-0.80;99.90
37158;DHT22;23050;51.776;22.638;2023-03-01T06:28:23;-0.60;99.90
37158;DHT22;23050;51.776;22.638;2023-03-01T06:30:52;-0.40;99.90
37158;DHT22;23050;51.776;22.638;2023-03-01T06:33:19;-0.20;99.90
37158;DHT22;23050;51.776;22.638;2023-03-01T06:35:46;-0.10;99.90
37158;DHT22;23050;51.776;22.638;2023-03-01T06:38:12;0.10;99.90
37158;DHT22;23050;51.776;22.638;2023-03-01T06:40:40;0.30;99.90
37158;DHT22;23050;51.776;22.638;2023-03-01T06:43:06;0.40;99.90
37158;DHT22;23050;51.776;22.638;2023-03-01T06:45:33;0.40;99.60
37158;DHT22;23050;51.776;22.638;2023-03-01T06:48:05;0.50;99.40
37158;DHT22;23050;51.776;22.638;2023-03-01T06:50:32;0.40;97.80
37158;DHT22;23050;51.776;22.638;2023-03-01T06:52:57;0.30;98.40
37158;DHT22;23050;51.776;22.638;2023-03-01T06:55:23;0.30;99.00
37158;DHT22;23050;51.776;22.638;2023-03-01T06:57:54;0.30;99.20
37158;DHT22;23050;51.776;22.638;2023-03-01T07:00:20;0.20;99.60
37158;DHT22;23050;51.776;22.638;2023-03-01T07:02:46;0.20;99.90
37158;DHT22;23050;51.776;22.638;2023-03-01T07:05:11;0.30;99.90
37158;DHT22;23050;51.776;22.638;2023-03-01T07:07:37;0.50;99.90
37158;DHT22;23050;51.776;22.638;2023-03-01T07:10:03;0.50;99.10
37158;DHT22;23050;51.776;22.638;2023-03-01T07:12:29;0.50;97.50
37158;DHT22;23050;51.776;22.638;2023-03-01T07:14:54;0.50;96.70
37158;DHT22;23050;51.776;22.638;2023-03-01T07:17:20;0.50;95.70
37158;DHT22;23050;51.776;22.638;2023-03-01T07:19:45;0.50;95.00
37158;DHT22;23050;51.776;22.638;2023-03-01T07:22:11;0.60;94.80
37158;DHT22;23050;51.776;22.638;2023-03-01T07:24:36;1.00;94.60
37158;DHT22;23050;51.776;22.638;2023-03-01T07:27:02;1.50;87.10
37158;DHT22;23050;51.776;22.638;2023-03-01T07:29:28;1.80;79.60
37158;DHT22;23050;51.776;22.638;2023-03-01T07:31:54;2.20;67.30
37158;DHT22;23050;51.776;22.638;2023-03-01T07:34:20;2.80;59.00
37158;DHT22;23050;51.776;22.638;2023-03-01T07:36:45;3.00;29.80
37158;DHT22;23050;51.776;22.638;2023-03-01T07:39:11;3.30;21.90
37158;DHT22;23050;51.776;22.638;2023-03-01T07:41:37;3.40;17.80
37158;DHT22;23050;51.776;22.638;2023-03-01T07:44:03;4.40;14.40
37158;DHT22;23050;51.776;22.638;2023-03-01T07:46:28;5.70;1.00
37158;DHT22;23050;51.776;22.638;2023-03-01T07:48:54;7.20;1.00
37158;DHT22;23050;51.776;22.638;2023-03-01T07:51:19;7.60;1.00
37158;DHT22;23050;51.776;22.638;2023-03-01T07:53:48;7.90;1.00
37158;DHT22;23050;51.776;22.638;2023-03-01T07:56:15;7.70;1.00
37158;DHT22;23050;51.776;22.638;2023-03-01T07:58:44;6.30;1.00
37158;DHT22;23050;51.776;22.638;2023-03-01T08:01:15;5.40;1.00
37158;DHT22;23050;51.776;22.638;2023-03-01T08:03:41;4.90;1.00
37158;DHT22;23050;51.776;22.638;2023-03-01T08:06:09;4.50;1.00
37158;DHT22;23050;51.776;22.638;2023-03-01T08:08:34;4.70;1.00
37158;DHT22;23050;51.776;22.638;2023-03-01T08:11:02;4.70;1.00
37158;DHT22;23050;51.776;22.638;2023-03-01T08:13:28;4.60;1.00
37158;DHT22;23050;51.776;22.638;2023-03-01T08:15:54;4.50;1.00
37158;DHT22;23050;51.776;22.638;2023-03-01T08:18:21;4.20;1.00
37158;DHT22;23050;51.776;22.638;2023-03-01T08:20:47;4.20;1.00
37158;DHT22;23050;51.776;22.638;2023-03-01T08:23:12;4.00;1.00
37158;DHT22;23050;51.776;22.638;2023-03-01T08:25:38;3.70;1.00
37158;DHT22;23050;51.776;22.638;2023-03-01T08:28:05;3.40;2.10
37158;DHT22;23050;51.776;22.638;2023-03-01T08:30:30;3.10;13.30
37158;DHT22;23050;51.776;22.638;2023-03-01T08:32:56;2.90;22.90
37158;DHT22;23050;51.776;22.638;2023-03-01T08:35:21;2.60;34.30
37158;DHT22;23050;51.776;22.638;2023-03-01T08:37:47;2.50;45.70
37158;DHT22;23050;51.776;22.638;2023-03-01T08:40:13;2.60;51.10
37158;DHT22;23050;51.776;22.638;2023-03-01T08:42:40;2.70;52.20
37158;DHT22;23050;51.776;22.638;2023-03-01T08:45:07;2.70;50.10
37158;DHT22;23050;51.776;22.638;2023-03-01T08:47:32;2.80;49.80
37158;DHT22;23050;51.776;22.638;2023-03-01T08:50:02;2.70;51.80
37158;DHT22;23050;51.776;22.638;2023-03-01T08:52:28;2.70;56.10
37158;DHT22;23050;51.776;22.638;2023-03-01T08:54:55;2.60;58.80
37158;DHT22;23050;51.776;22.638;2023-03-01T08:57:21;2.60;62.70
37158;DHT22;23050;51.776;22.638;2023-03-01T08:59:46;2.70;63.60
37158;DHT22;23050;51.776;22.638;2023-03-01T09:02:14;2.70;65.50
37158;DHT22;23050;51.776;22.638;2023-03-01T09:04:40;2.70;64.00
37158;DHT22;23050;51.776;22.638;2023-03-01T09:07:06;2.80;64.30
37158;DHT22;23050;51.776;22.638;2023-03-01T09:09:32;2.90;65.00
37158;DHT22;23050;51.776;22.638;2023-03-01T09:11:57;3.10;62.60
37158;DHT22;23050;51.776;22.638;2023-03-01T09:14:23;3.20;58.10
37158;DHT22;23050;51.776;22.638;2023-03-01T09:16:49;3.30;59.40
37158;DHT22;23050;51.776;22.638;2023-03-01T09:19:15;3.40;51.20
37158;DHT22;23050;51.776;22.638;2023-03-01T09:21:41;3.50;46.30
37158;DHT22;23050;51.776;22.638;2023-03-01T09:24:14;3.50;49.20
37158;DHT22;23050;51.776;22.638;2023-03-01T09:26:40;3.70;47.50
37158;DHT22;23050;51.776;22.638;2023-03-01T09:29:05;3.80;44.20
37158;DHT22;23050;51.776;22.638;2023-03-01T09:31:31;4.00;43.50
37158;DHT22;23050;51.776;22.638;2023-03-01T09:33:56;4.30;39.40
37158;DHT22;23050;51.776;22.638;2023-03-01T09:36:24;4.60;31.80
37158;DHT22;23050;51.776;22.638;2023-03-01T09:38:51;4.70;18.60
37158;DHT22;23050;51.776;22.638;2023-03-01T09:44:13;5.00;12.50
37158;DHT22;23050;51.776;22.638;2023-03-01T09:46:44;5.30;8.10
37158;DHT22;23050;51.776;22.638;2023-03-01T09:49:31;5.50;4.20
37158;DHT22;23050;51.776;22.638;2023-03-01T09:52:17;5.70;1.00
37158;DHT22;23050;51.776;22.638;2023-03-01T09:54:47;5.80;1.00
37158;DHT22;23050;51.776;22.638;2023-03-01T09:57:20;5.90;1.00
37158;DHT22;23050;51.776;22.638;2023-03-01T10:02:59;5.90;1.00
37158;DHT22;23050;51.776;22.638;2023-03-01T10:08:34;5.50;1.00
37158;DHT22;23050;51.776;22.638;2023-03-01T10:11:05;5.50;1.00
37158;DHT22;23050;51.776;22.638;2023-03-01T10:13:47;5.50;2.70
37158;DHT22;23050;51.776;22.638;2023-03-01T10:16:34;5.80;6.30
37158;DHT22;23050;51.776;22.638;2023-03-01T10:19:05;6.00;4.40
37158;DHT22;23050;51.776;22.638;2023-03-01T10:21:41;6.20;1.00
37158;DHT22;23050;51.776;22.638;2023-03-01T10:24:14;6.30;1.00
37158;DHT22;23050;51.776;22.638;2023-03-01T10:26:53;6.50;1.00
37158;DHT22;23050;51.776;22.638;2023-03-01T10:29:24;6.60;1.00
37158;DHT22;23050;51.776;22.638;2023-03-01T10:31:52;6.90;1.00
37158;DHT22;23050;51.776;22.638;2023-03-01T10:34:31;7.00;1.00
37158;DHT22;23050;51.776;22.638;2023-03-01T10:37:07;7.00;1.00
37158;DHT22;23050;51.776;22.638;2023-03-01T10:39:34;7.00;1.00
37158;DHT22;23050;51.776;22.638;2023-03-01T10:42:01;7.30;1.00
37158;DHT22;23050;51.776;22.638;2023-03-01T10:44:47;7.50;1.00
37158;DHT22;23050;51.776;22.638;2023-03-01T10:47:22;7.70;1.00
37158;DHT22;23050;51.776;22.638;2023-03-01T10:49:54;7.80;1.00
37158;DHT22;23050;51.776;22.638;2023-03-01T10:52:26;7.70;1.00
37158;DHT22;23050;51.776;22.638;2023-03-01T10:54:57;7.70;1.00
37158;DHT22;23050;51.776;22.638;2023-03-01T10:57:32;7.70;1.00
37158;DHT22;23050;51.776;22.638;2023-03-01T11:02:38;7.40;1.00
37158;DHT22;23050;51.776;22.638;2023-03-01T11:07:55;7.80;1.00
37158;DHT22;23050;51.776;22.638;2023-03-01T11:10:27;8.10;1.00
37158;DHT22;23050;51.776;22.638;2023-03-01T11:13:05;8.30;1.00
37158;DHT22;23050;51.776;22.638;2023-03-01T11:15:32;8.60;1.00
37158;DHT22;23050;51.776;22.638;2023-03-01T11:17:57;8.80;1.00
37158;DHT22;23050;51.776;22.638;2023-03-01T11:20:36;9.00;1.00
37158;DHT22;23050;51.776;22.638;2023-03-01T11:23:05;9.40;1.00
37158;DHT22;23050;51.776;22.638;2023-03-01T11:25:41;9.70;1.00
37158;DHT22;23050;51.776;22.638;2023-03-01T11:28:13;9.80;1.00
37158;DHT22;23050;51.776;22.638;2023-03-01T11:33:50;9.90;1.00
37158;DHT22;23050;51.776;22.638;2023-03-01T11:38:53;9.80;1.00
37158;DHT22;23050;51.776;22.638;2023-03-01T11:41:26;9.90;1.00
37158;DHT22;23050;51.776;22.638;2023-03-01T11:44:11;9.10;1.00
37158;DHT22;23050;51.776;22.638;2023-03-01T11:53:04;8.70;1.00
37158;DHT22;23050;51.776;22.638;2023-03-01T11:55:26;9.10;1.00
37158;DHT22;23050;51.776;22.638;2023-03-01T11:58:29;9.40;1.00
37158;DHT22;23050;51.776;22.638;2023-03-01T12:03:53;9.40;1.00
37158;DHT22;23050;51.776;22.638;2023-03-01T12:09:36;9.60;1.00
37158;DHT22;23050;51.776;22.638;2023-03-01T12:17:37;10.20;1.00
37158;DHT22;23050;51.776;22.638;2023-03-01T12:23:48;10.20;1.00
37158;DHT22;23050;51.776;22.638;2023-03-01T12:34:18;9.50;1.00
37158;DHT22;23050;51.776;22.638;2023-03-01T12:39:38;9.00;1.00
37158;DHT22;23050;51.776;22.638;2023-03-01T12:42:13;8.80;1.00
37158;DHT22;23050;51.776;22.638;2023-03-01T12:50:40;8.70;1.00
37158;DHT22;23050;51.776;22.638;2023-03-01T12:53:32;8.50;1.00
37158;DHT22;23050;51.776;22.638;2023-03-01T12:56:02;8.30;1.00
37158;DHT22;23050;51.776;22.638;2023-03-01T13:17:49;9.10;1.00
37158;DHT22;23050;51.776;22.638;2023-03-01T13:20:21;9.00;1.00
37158;DHT22;23050;51.776;22.638;2023-03-01T13:23:05;9.10;1.00
37158;DHT22;23050;51.776;22.638;2023-03-01T13:25:31;9.10;1.00
37158;DHT22;23050;51.776;22.638;2023-03-01T13:31:03;8.60;1.00
37158;DHT22;23050;51.776;22.638;2023-03-01T13:35:58;8.40;1.00
37158;DHT22;23050;51.776;22.638;2023-03-01T13:41:02;8.20;1.00
37158;DHT22;23050;51.776;22.638;2023-03-01T13:43:33;8.20;1.00
37158;DHT22;23050;51.776;22.638;2023-03-01T13:46:00;8.10;1.00
37158;DHT22;23050;51.776;22.638;2023-03-01T13:48:29;8.10;1.00
37158;DHT22;23050;51.776;22.638;2023-03-01T13:51:00;7.90;1.00
37158;DHT22;23050;51.776;22.638;2023-03-01T13:53:31;7.40;1.00
37158;DHT22;23050;51.776;22.638;2023-03-01T13:56:10;7.20;1.00
37158;DHT22;23050;51.776;22.638;2023-03-01T13:58:58;7.30;1.00
37158;DHT22;23050;51.776;22.638;2023-03-01T14:01:32;7.20;1.00
37158;DHT22;23050;51.776;22.638;2023-03-01T14:03:59;7.10;1.00
37158;DHT22;23050;51.776;22.638;2023-03-01T14:06:27;7.10;1.00
37158;DHT22;23050;51.776;22.638;2023-03-01T14:09:18;7.50;1.00
37158;DHT22;23050;51.776;22.638;2023-03-01T14:14:32;8.30;1.00
37158;DHT22;23050;51.776;22.638;2023-03-01T14:19:43;8.40;1.00
37158;DHT22;23050;51.776;22.638;2023-03-01T14:22:24;8.80;1.00
37158;DHT22;23050;51.776;22.638;2023-03-01T14:24:54;9.30;1.00
37158;DHT22;23050;51.776;22.638;2023-03-01T14:27:20;9.90;1.00
37158;DHT22;23050;51.776;22.638;2023-03-01T14:30:00;10.20;1.00
37158;DHT22;23050;51.776;22.638;2023-03-01T14:32:28;10.40;1.00
37158;DHT22;23050;51.776;22.638;2023-03-01T14:34:55;10.50;1.00
37158;DHT22;23050;51.776;22.638;2023-03-01T14:37:32;10.00;1.00
37158;DHT22;23050;51.776;22.638;2023-03-01T14:39:59;9.90;1.00
37158;DHT22;23050;51.776;22.638;2023-03-01T14:42:29;9.60;1.00
37158;DHT22;23050;51.776;22.638;2023-03-01T14:44:57;9.50;1.00
37158;DHT22;23050;51.776;22.638;2023-03-01T14:47:34;9.20;1.00
37158;DHT22;23050;51.776;22.638;2023-03-01T14:53:01;8.70;1.00
37158;DHT22;23050;51.776;22.638;2023-03-01T14:55:31;8.40;1.00
37158;DHT22;23050;51.776;22.638;2023-03-01T14:57:58;8.20;1.00
37158;DHT22;23050;51.776;22.638;2023-03-01T15:00:29;8.00;1.00
37158;DHT22;23050;51.776;22.638;2023-03-01T15:03:07;7.90;1.00
37158;DHT22;23050;51.776;22.638;2023-03-01T15:05:39;7.60;1.00
37158;DHT22;23050;51.776;22.638;2023-03-01T15:08:05;7.40;1.00
37158;DHT22;23050;51.776;22.638;2023-03-01T15:10:36;7.20;1.00
37158;DHT22;23050;51.776;22.638;2023-03-01T15:13:23;6.80;1.00
37158;DHT22;23050;51.776;22.638;2023-03-01T15:15:51;6.50;1.00
37158;DHT22;23050;51.776;22.638;2023-03-01T15:18:22;6.30;5.90
37158;DHT22;23050;51.776;22.638;2023-03-01T15:20:51;6.10;15.80
37158;DHT22;23050;51.776;22.638;2023-03-01T15:25:48;5.80;34.10
37158;DHT22;23050;51.776;22.638;2023-03-01T15:28:30;5.70;41.50
37158;DHT22;23050;51.776;22.638;2023-03-01T15:31:07;5.70;46.10
37158;DHT22;23050;51.776;22.638;2023-03-01T15:33:38;5.70;50.20
37158;DHT22;23050;51.776;22.638;2023-03-01T15:36:30;5.70;48.40
37158;DHT22;23050;51.776;22.638;2023-03-01T15:38:58;5.60;52.10
37158;DHT22;23050;51.776;22.638;2023-03-01T15:41:37;5.60;53.80
37158;DHT22;23050;51.776;22.638;2023-03-01T15:44:26;5.50;56.80
37158;DHT22;23050;51.776;22.638;2023-03-01T15:46:52;5.40;61.80
37158;DHT22;23050;51.776;22.638;2023-03-01T15:51:55;5.30;71.60
37158;DHT22;23050;51.776;22.638;2023-03-01T15:54:24;5.20;75.40
37158;DHT22;23050;51.776;22.638;2023-03-01T15:56:50;5.20;78.10
37158;DHT22;23050;51.776;22.638;2023-03-01T15:59:17;5.10;81.50
37158;DHT22;23050;51.776;22.638;2023-03-01T16:01:44;5.10;83.30
37158;DHT22;23050;51.776;22.638;2023-03-01T16:04:14;5.00;86.90
37158;DHT22;23050;51.776;22.638;2023-03-01T16:06:46;5.00;89.60
37158;DHT22;23050;51.776;22.638;2023-03-01T16:09:23;4.90;86.80
37158;DHT22;23050;51.776;22.638;2023-03-01T16:11:50;4.80;86.50
37158;DHT22;23050;51.776;22.638;2023-03-01T16:14:16;4.80;88.20
37158;DHT22;23050;51.776;22.638;2023-03-01T16:16:42;4.80;90.20
37158;DHT22;23050;51.776;22.638;2023-03-01T16:19:08;4.70;91.70
37158;DHT22;23050;51.776;22.638;2023-03-01T16:21:33;4.70;93.20
37158;DHT22;23050;51.776;22.638;2023-03-01T16:23:59;4.60;94.00
37158;DHT22;23050;51.776;22.638;2023-03-01T16:26:24;4.50;94.80
37158;DHT22;23050;51.776;22.638;2023-03-01T16:28:50;4.50;95.50
37158;DHT22;23050;51.776;22.638;2023-03-01T16:31:19;4.40;95.40
37158;DHT22;23050;51.776;22.638;2023-03-01T16:33:45;4.40;95.40
37158;DHT22;23050;51.776;22.638;2023-03-01T16:36:16;4.40;95.70
37158;DHT22;23050;51.776;22.638;2023-03-01T16:38:41;4.30;95.80
37158;DHT22;23050;51.776;22.638;2023-03-01T16:41:12;4.40;95.80
37158;DHT22;23050;51.776;22.638;2023-03-01T16:43:38;4.30;96.10
37158;DHT22;23050;51.776;22.638;2023-03-01T16:46:16;4.30;96.50
37158;DHT22;23050;51.776;22.638;2023-03-01T16:48:42;4.20;97.80
37158;DHT22;23050;51.776;22.638;2023-03-01T16:51:08;4.10;98.70
37158;DHT22;23050;51.776;22.638;2023-03-01T16:53:35;4.00;99.30
37158;DHT22;23050;51.776;22.638;2023-03-01T16:56:06;4.00;99.80
37158;DHT22;23050;51.776;22.638;2023-03-01T16:58:33;3.90;99.90
37158;DHT22;23050;51.776;22.638;2023-03-01T17:01:05;3.90;99.90
37158;DHT22;23050;51.776;22.638;2023-03-01T17:03:31;3.80;99.90
37158;DHT22;23050;51.776;22.638;2023-03-01T17:05:56;3.70;99.90
37158;DHT22;23050;51.776;22.638;2023-03-01T17:08:22;3.70;99.90
37158;DHT22;23050;51.776;22.638;2023-03-01T17:10:48;3.60;99.90
37158;DHT22;23050;51.776;22.638;2023-03-01T17:13:13;3.60;99.90
37158;DHT22;23050;51.776;22.638;2023-03-01T17:15:40;3.50;99.90
37158;DHT22;23050;51.776;22.638;2023-03-01T17:18:07;3.40;99.90
37158;DHT22;23050;51.776;22.638;2023-03-01T17:20:32;3.30;99.90
37158;DHT22;23050;51.776;22.638;2023-03-01T17:22:58;3.20;99.90
37158;DHT22;23050;51.776;22.638;2023-03-01T17:25:24;3.10;99.90
37158;DHT22;23050;51.776;22.638;2023-03-01T17:27:49;3.10;99.90
37158;DHT22;23050;51.776;22.638;2023-03-01T17:30:15;3.00;99.90
37158;DHT22;23050;51.776;22.638;2023-03-01T17:32:41;2.90;99.90